createdAt,value
2022-09-27T00:02:04.233Z,2.43
2022-09-27T00:07:26.458Z,2.10
2022-09-27T00:12:48.797Z,2.10
2022-09-27T00:18:10.910Z,2.30
2022-09-27T00:23:34.156Z,2.10
2022-09-27T00:28:56.676Z,2.00
2022-09-27T00:34:24.389Z,2.03
2022-09-27T00:39:46.719Z,2.53
2022-09-27T00:45:15.113Z,2.40
2022-09-27T00:50:46.980Z,2.13
2022-09-27T00:56:18.412Z,1.90
2022-09-27T01:01:41.025Z,1.90
2022-09-27T01:07:03.729Z,1.93
2022-09-27T01:12:45.788Z,1.90
2022-09-27T01:18:11.373Z,1.80
2022-09-27T01:24:11.175Z,1.87
2022-09-27T01:29:55.604Z,2.07
2022-09-27T01:35:55.426Z,2.00
2022-09-27T01:41:47.395Z,2.07
2022-09-27T01:47:20.918Z,1.70
2022-09-27T01:53:00.114Z,1.73
2022-09-27T01:58:43.975Z,1.80
2022-09-27T02:04:10.811Z,1.97
2022-09-27T02:09:41.347Z,1.83
2022-09-27T02:15:26.700Z,1.70
2022-09-27T02:21:14.815Z,1.67
2022-09-27T02:26:42.366Z,1.77
2022-09-27T02:32:04.950Z,2.00
2022-09-27T02:37:27.607Z,1.70
2022-09-27T02:42:50.812Z,1.60
2022-09-27T02:48:44.936Z,1.90
2022-09-27T02:54:30.604Z,1.73
2022-09-27T03:00:22.126Z,1.90
2022-09-27T03:06:06.655Z,1.57
2022-09-27T03:11:29.417Z,2.17
2022-09-27T03:16:52.036Z,2.13
2022-09-27T03:22:32.965Z,1.77
2022-09-27T03:27:55.256Z,2.17
2022-09-27T03:33:17.744Z,2.10
2022-09-27T03:38:53.787Z,1.97
2022-09-27T03:44:16.332Z,2.17
2022-09-27T03:49:38.556Z,2.10
2022-09-27T03:55:02.309Z,2.20
2022-09-27T04:00:26.180Z,2.07
2022-09-27T04:05:48.615Z,2.17
2022-09-27T04:11:15.361Z,2.10
2022-09-27T04:16:40.737Z,2.23
2022-09-27T04:22:18.092Z,2.20
2022-09-27T04:27:45.823Z,1.97
2022-09-27T04:33:08.251Z,2.30
2022-09-27T04:38:48.574Z,2.30
2022-09-27T04:44:15.460Z,2.50
2022-09-27T04:49:41.144Z,2.40
2022-09-27T04:55:05.365Z,2.30
2022-09-27T05:00:29.197Z,2.30
2022-09-27T05:05:59.349Z,2.40
2022-09-27T05:11:22.498Z,1.90
2022-09-27T05:17:03.884Z,2.10
2022-09-27T05:22:32.127Z,2.57
2022-09-27T05:27:54.977Z,2.47
2022-09-27T05:33:17.100Z,2.20
2022-09-27T05:38:59.642Z,2.13
2022-09-27T05:44:23.576Z,2.40
2022-09-27T05:49:55.343Z,2.40
2022-09-27T05:55:18.015Z,2.43
2022-09-27T06:00:40.560Z,2.80
2022-09-27T06:06:23.828Z,2.50
2022-09-27T06:11:51.231Z,2.37
2022-09-27T06:17:14.220Z,2.50
2022-09-27T06:22:39.720Z,2.37
2022-09-27T06:28:03.906Z,2.20
2022-09-27T06:33:29.876Z,2.53
2022-09-27T06:38:55.025Z,2.63
2022-09-27T06:44:37.527Z,3.10
2022-09-27T06:50:18.506Z,2.70
2022-09-27T06:55:41.677Z,2.53
2022-09-27T07:01:04.405Z,2.70
2022-09-27T07:06:45.514Z,3.17
2022-09-27T07:12:16.370Z,2.80
2022-09-27T07:17:38.652Z,3.30
2022-09-27T07:23:00.987Z,3.20
2022-09-27T07:28:23.557Z,3.83
2022-09-27T07:33:46.103Z,3.20
2022-09-27T07:39:09.921Z,3.10
2022-09-27T07:44:32.843Z,3.50
2022-09-27T07:50:11.225Z,2.90
2022-09-27T07:55:54.731Z,3.17
2022-09-27T08:01:21.364Z,3.40
2022-09-27T08:06:44.197Z,3.30
2022-09-27T08:12:06.648Z,3.10
2022-09-27T08:17:29.420Z,3.57
2022-09-27T08:23:10.851Z,3.13
2022-09-27T08:28:37.502Z,3.37
2022-09-27T08:34:09.137Z,3.63
2022-09-27T08:39:32.461Z,3.70
2022-09-27T08:45:14.808Z,3.57
2022-09-27T08:50:41.986Z,2.97
2022-09-27T08:56:10.768Z,3.17
2022-09-27T09:01:36.450Z,3.30
2022-09-27T09:07:12.971Z,3.17
2022-09-27T09:12:55.246Z,3.57
2022-09-27T09:18:35.382Z,3.53
2022-09-27T09:24:25.207Z,3.03
2022-09-27T09:30:09.506Z,2.77
2022-09-27T09:35:48.350Z,3.13
2022-09-27T09:41:15.639Z,3.03
2022-09-27T09:46:45.716Z,3.13
2022-09-27T09:52:18.192Z,3.10
2022-09-27T09:58:00.003Z,3.27
2022-09-27T10:03:26.316Z,2.57
2022-09-27T10:08:50.118Z,3.13
2022-09-27T10:14:27.231Z,2.90
2022-09-27T10:19:54.503Z,3.00
2022-09-27T10:25:18.263Z,3.10
2022-09-27T10:30:57.342Z,2.80
2022-09-27T10:36:34.461Z,2.73
2022-09-27T10:41:57.059Z,2.20
2022-09-27T10:47:30.027Z,2.57
2022-09-27T10:53:19.369Z,2.93
2022-09-27T10:58:52.087Z,2.33
2022-09-27T11:04:32.753Z,2.73
2022-09-27T11:10:03.219Z,2.40
2022-09-27T11:15:31.083Z,2.70
2022-09-27T11:21:22.618Z,2.50
2022-09-27T11:26:45.256Z,2.00
2022-09-27T11:32:53.537Z,2.10
2022-09-27T11:38:54.074Z,2.20
2022-09-27T11:44:27.722Z,2.10
2022-09-27T11:50:11.283Z,1.90
2022-09-27T11:55:49.375Z,2.17
2022-09-27T12:01:51.379Z,2.17
2022-09-27T12:07:32.062Z,2.17
2022-09-27T12:12:58.549Z,1.77
2022-09-27T12:18:33.552Z,2.50
2022-09-27T12:24:01.909Z,4.00
2022-09-27T12:29:34.185Z,2.07
2022-09-27T12:35:11.755Z,1.00
2022-09-27T12:40:42.340Z,0.70
2022-09-27T12:46:23.612Z,0.77
2022-09-27T12:51:55.720Z,0.90
2022-09-27T12:57:30.256Z,1.07
2022-09-27T13:03:26.422Z,0.80
2022-09-27T13:09:12.351Z,1.33
2022-09-27T13:14:59.159Z,1.10
2022-09-27T13:20:27.701Z,1.20
2022-09-27T13:25:55.529Z,1.50
2022-09-27T13:31:54.736Z,1.07
2022-09-27T13:37:44.631Z,1.63
2022-09-27T13:43:10.572Z,1.30
2022-09-27T13:48:55.644Z,1.77
2022-09-27T13:54:51.091Z,1.50
2022-09-27T14:00:22.918Z,1.37
2022-09-27T14:06:09.283Z,1.40
2022-09-27T14:11:38.040Z,1.60
2022-09-27T14:17:09.187Z,1.30
2022-09-27T14:22:34.963Z,1.30
2022-09-27T14:28:00.614Z,1.57
2022-09-27T14:33:31.335Z,1.70
2022-09-27T14:39:14.243Z,1.70
2022-09-27T14:44:43.928Z,1.80
2022-09-27T14:50:28.900Z,1.90
2022-09-27T14:55:54.763Z,1.80
2022-09-27T15:01:20.223Z,2.10
2022-09-27T15:06:43.696Z,2.70
2022-09-27T15:12:08.610Z,2.50
2022-09-27T15:17:42.561Z,1.70
2022-09-27T15:23:06.139Z,1.50
2022-09-27T15:28:28.591Z,1.67
2022-09-27T15:33:56.300Z,1.53
2022-09-27T15:39:28.459Z,1.67
2022-09-27T15:44:57.787Z,1.80
2022-09-27T15:50:26.009Z,2.00
2022-09-27T15:55:49.364Z,1.80
2022-09-27T16:01:18.819Z,1.97
2022-09-27T16:06:44.075Z,2.10
2022-09-27T16:12:06.267Z,2.17
2022-09-27T16:17:28.445Z,2.00
2022-09-27T16:22:52.058Z,1.80
2022-09-27T16:28:14.664Z,1.90
2022-09-27T16:33:37.158Z,2.50
2022-09-27T16:38:59.444Z,2.00
2022-09-27T16:44:21.811Z,2.53
2022-09-27T16:50:02.713Z,2.47
2022-09-27T16:55:25.285Z,2.60
2022-09-27T17:00:47.822Z,2.90
2022-09-27T17:06:10.859Z,3.40
2022-09-27T17:11:33.152Z,3.07
2022-09-27T17:16:55.451Z,3.33
2022-09-27T17:22:18.284Z,3.87
2022-09-27T17:27:40.816Z,3.80
2022-09-27T17:33:03.671Z,3.43
2022-09-27T17:38:25.864Z,2.80
2022-09-27T17:43:50.538Z,3.20
2022-09-27T17:49:32.343Z,2.60
2022-09-27T17:54:55.799Z,3.00
2022-09-27T18:00:19.304Z,2.60
2022-09-27T18:05:42.046Z,2.90
2022-09-27T18:11:12.350Z,2.67
2022-09-27T18:16:39.580Z,2.97
2022-09-27T18:22:01.907Z,2.77
2022-09-27T18:27:24.163Z,2.67
2022-09-27T18:32:46.646Z,2.50
2022-09-27T18:38:09.557Z,2.87
2022-09-27T18:43:37.972Z,3.10
2022-09-27T18:49:03.464Z,3.33
2022-09-27T18:54:26.532Z,3.27
2022-09-27T18:59:50.222Z,3.27
2022-09-27T19:05:13.646Z,3.43
2022-09-27T19:10:36.996Z,3.93
2022-09-27T19:16:04.280Z,4.00
2022-09-27T19:21:29.619Z,4.90
2022-09-27T19:26:56.443Z,5.17
2022-09-27T19:32:19.578Z,4.27
2022-09-27T19:37:42.052Z,3.87
2022-09-27T19:43:04.536Z,3.20
2022-09-27T19:48:26.538Z,3.60
2022-09-27T19:53:49.312Z,3.97
2022-09-27T19:59:12.009Z,3.80
2022-09-27T20:04:34.127Z,3.20
2022-09-27T20:09:56.578Z,2.83
2022-09-27T20:15:19.529Z,2.60
2022-09-27T20:20:42.032Z,2.87
2022-09-27T20:26:08.150Z,2.17
2022-09-27T20:31:37.294Z,2.30
2022-09-27T20:36:59.527Z,2.30
2022-09-27T20:42:21.884Z,2.10
2022-09-27T20:47:44.190Z,2.17
2022-09-27T20:53:06.816Z,3.13
2022-09-27T20:58:30.143Z,2.20
2022-09-27T21:03:57.447Z,2.17
2022-09-27T21:09:20.358Z,2.07
2022-09-27T21:14:42.576Z,1.90
2022-09-27T21:20:05.037Z,1.73
2022-09-27T21:25:27.791Z,1.60
2022-09-27T21:30:49.933Z,1.83
2022-09-27T21:36:12.371Z,1.70
2022-09-27T21:41:34.661Z,2.00
2022-09-27T21:46:56.812Z,1.53
2022-09-27T21:52:19.314Z,2.20
2022-09-27T21:57:41.561Z,2.07
2022-09-27T22:03:04.017Z,2.13
2022-09-27T22:08:26.151Z,1.63
2022-09-27T22:13:48.759Z,1.43
2022-09-27T22:19:13.269Z,1.53
2022-09-27T22:24:35.761Z,1.73
2022-09-27T22:29:58.147Z,2.00
2022-09-27T22:35:21.691Z,1.70
2022-09-27T22:40:44.231Z,1.80
2022-09-27T22:46:06.838Z,1.70
2022-09-27T22:51:29.504Z,2.37
2022-09-27T22:56:57.298Z,1.83
2022-09-27T23:02:20.050Z,1.70
2022-09-27T23:07:42.485Z,2.10
2022-09-27T23:13:05.083Z,1.80
2022-09-27T23:18:27.966Z,1.97
2022-09-27T23:23:50.962Z,2.40
2022-09-27T23:29:13.589Z,2.40
2022-09-27T23:34:35.827Z,2.53
2022-09-27T23:39:58.476Z,2.10
2022-09-27T23:45:21.157Z,2.10
2022-09-27T23:50:44.397Z,2.50
2022-09-27T23:56:13.769Z,1.80
